createdAt,value
2018-03-27T00:00:35.202Z,0.00
2018-03-27T00:01:35.021Z,0.00
2018-03-27T00:02:34.998Z,0.00
2018-03-27T00:03:34.884Z,0.00
2018-03-27T00:04:34.803Z,0.00
2018-03-27T00:05:34.686Z,0.00
2018-03-27T00:06:34.719Z,0.00
2018-03-27T00:07:34.528Z,0.00
2018-03-27T00:08:34.561Z,0.00
2018-03-27T00:09:34.362Z,0.00
2018-03-27T00:10:34.336Z,0.00
2018-03-27T00:11:34.203Z,0.00
2018-03-27T00:12:34.248Z,0.00
2018-03-27T00:13:34.034Z,0.00
2018-03-27T00:14:34.087Z,0.00
2018-03-27T00:15:33.879Z,0.00
2018-03-27T00:16:33.861Z,0.00
2018-03-27T00:17:33.710Z,0.00
2018-03-27T00:18:33.700Z,0.00
2018-03-27T00:19:33.565Z,0.00
2018-03-27T00:20:33.583Z,0.00
2018-03-27T00:21:33.418Z,0.00
2018-03-27T00:22:33.388Z,0.00
2018-03-27T00:23:33.230Z,0.00
2018-03-27T00:24:33.217Z,0.00
2018-03-27T00:25:33.100Z,0.00
2018-03-27T00:26:33.119Z,0.00
2018-03-27T00:27:32.910Z,0.00
2018-03-27T00:28:32.927Z,0.00
2018-03-27T00:29:32.758Z,0.00
2018-03-27T00:30:32.728Z,0.00
2018-03-27T00:31:32.581Z,0.00
2018-03-27T00:32:32.532Z,0.00
2018-03-27T00:33:32.412Z,0.00
2018-03-27T00:34:32.482Z,0.00
2018-03-27T00:35:32.259Z,0.00
2018-03-27T00:36:32.246Z,0.00
2018-03-27T00:37:32.092Z,0.00
2018-03-27T00:38:32.062Z,0.00
2018-03-27T00:39:31.944Z,0.00
2018-03-27T00:40:31.972Z,0.00
2018-03-27T00:41:31.779Z,0.00
2018-03-27T00:42:31.775Z,0.00
2018-03-27T00:43:31.601Z,0.00
2018-03-27T00:44:31.617Z,0.00
2018-03-27T00:45:31.488Z,0.00
2018-03-27T00:46:31.497Z,0.00
2018-03-27T00:47:31.284Z,0.00
2018-03-27T00:48:31.304Z,0.00
2018-03-27T00:49:31.120Z,0.00
2018-03-27T00:50:31.156Z,0.00
2018-03-27T00:51:30.952Z,0.00
2018-03-27T00:52:30.931Z,0.00
2018-03-27T00:53:30.794Z,0.00
2018-03-27T00:54:30.834Z,0.00
2018-03-27T00:55:30.665Z,0.00
2018-03-27T00:56:30.642Z,0.00
2018-03-27T00:57:30.494Z,0.00
2018-03-27T00:58:30.556Z,0.00
2018-03-27T00:59:30.309Z,0.00
2018-03-27T01:00:30.293Z,0.00
2018-03-27T01:01:30.159Z,0.00
2018-03-27T01:02:30.166Z,0.00
2018-03-27T01:03:29.983Z,0.00
2018-03-27T01:04:29.983Z,0.00
2018-03-27T01:05:29.847Z,0.00
2018-03-27T01:06:29.790Z,0.00
2018-03-27T01:07:29.663Z,0.00
2018-03-27T01:08:29.694Z,0.00
2018-03-27T01:09:29.498Z,0.00
2018-03-27T01:10:29.536Z,0.00
2018-03-27T01:11:29.352Z,0.00
2018-03-27T01:12:29.313Z,0.00
2018-03-27T01:13:29.178Z,0.00
2018-03-27T01:14:29.116Z,0.00
2018-03-27T01:15:29.008Z,0.00
2018-03-27T01:16:29.057Z,0.00
2018-03-27T01:17:28.841Z,0.00
2018-03-27T01:18:28.851Z,0.00
2018-03-27T01:19:28.687Z,0.00
2018-03-27T01:20:28.689Z,0.00
2018-03-27T01:21:28.682Z,0.00
2018-03-27T01:22:28.557Z,0.00
2018-03-27T01:23:28.354Z,0.00
2018-03-27T01:24:28.382Z,0.00
2018-03-27T01:25:28.190Z,0.00
2018-03-27T01:26:28.204Z,0.00
2018-03-27T01:27:28.029Z,0.00
2018-03-27T01:28:27.982Z,0.00
2018-03-27T01:29:27.861Z,0.00
2018-03-27T01:30:27.894Z,0.00
2018-03-27T01:31:27.724Z,0.00
2018-03-27T01:32:27.702Z,0.00
2018-03-27T01:33:27.539Z,0.00
2018-03-27T01:34:27.510Z,0.00
2018-03-27T01:35:27.376Z,0.00
2018-03-27T01:36:27.350Z,0.00
2018-03-27T01:37:27.243Z,0.00
2018-03-27T01:38:27.537Z,0.00
2018-03-27T01:39:27.057Z,0.00
2018-03-27T01:42:09.182Z,0.00
2018-03-27T01:43:09.145Z,0.00
2018-03-27T01:44:09.007Z,0.00
2018-03-27T01:45:09.051Z,0.00
2018-03-27T01:46:08.843Z,0.00
2018-03-27T01:47:08.895Z,0.00
2018-03-27T01:48:08.731Z,0.00
2018-03-27T01:49:08.688Z,0.00
2018-03-27T01:50:08.525Z,0.00
2018-03-27T01:51:08.555Z,0.00
2018-03-27T01:52:08.377Z,0.00
2018-03-27T01:53:08.391Z,0.00
2018-03-27T01:54:08.194Z,0.00
2018-03-27T01:55:08.207Z,0.00
2018-03-27T01:56:08.024Z,0.00
2018-03-27T01:57:08.056Z,0.00
2018-03-27T01:58:07.888Z,0.00
2018-03-27T01:59:07.956Z,0.00
2018-03-27T02:00:07.701Z,0.00
2018-03-27T02:01:07.720Z,0.00
2018-03-27T02:02:07.548Z,0.00
2018-03-27T02:03:07.532Z,0.00
2018-03-27T02:04:07.377Z,0.00
2018-03-27T02:05:07.348Z,0.00
2018-03-27T02:06:07.212Z,0.00
2018-03-27T02:07:07.302Z,0.00
2018-03-27T02:08:07.068Z,0.00
2018-03-27T02:09:07.058Z,0.00
2018-03-27T02:10:06.886Z,0.00
2018-03-27T02:11:06.867Z,0.00
2018-03-27T02:12:06.718Z,0.00
2018-03-27T02:13:06.710Z,0.00
2018-03-27T02:14:06.566Z,0.00
2018-03-27T02:15:06.579Z,0.00
2018-03-27T02:16:06.392Z,0.00
2018-03-27T02:17:06.393Z,0.00
2018-03-27T02:18:06.287Z,0.00
2018-03-27T02:19:06.204Z,0.00
2018-03-27T02:20:06.074Z,0.00
2018-03-27T02:21:06.110Z,0.00
2018-03-27T02:22:05.904Z,0.00
2018-03-27T02:23:05.957Z,0.00
2018-03-27T02:24:05.753Z,0.00
2018-03-27T02:25:05.728Z,0.00
2018-03-27T02:26:05.585Z,0.00
2018-03-27T02:27:05.557Z,0.00
2018-03-27T02:28:05.416Z,0.00
2018-03-27T02:29:05.483Z,0.00
2018-03-27T02:30:05.254Z,0.00
2018-03-27T02:31:05.259Z,0.00
2018-03-27T02:32:05.088Z,0.00
2018-03-27T02:33:05.103Z,0.00
2018-03-27T02:34:04.939Z,0.00
2018-03-27T02:35:04.985Z,0.00
2018-03-27T02:36:04.764Z,0.00
2018-03-27T02:37:04.787Z,0.00
2018-03-27T02:38:04.623Z,0.00
2018-03-27T02:39:04.647Z,0.00
2018-03-27T02:40:04.433Z,0.00
2018-03-27T02:41:04.403Z,0.00
2018-03-27T02:42:04.283Z,0.00
2018-03-27T02:43:04.311Z,0.00
2018-03-27T02:44:04.121Z,0.00
2018-03-27T02:45:04.121Z,0.00
2018-03-27T02:46:03.940Z,0.00
2018-03-27T02:47:03.928Z,0.00
2018-03-27T02:48:03.792Z,0.00
2018-03-27T02:49:03.771Z,0.00
2018-03-27T02:50:03.617Z,0.00
2018-03-27T02:51:03.650Z,0.00
2018-03-27T02:52:03.447Z,0.00
2018-03-27T02:53:03.465Z,0.00
2018-03-27T02:54:03.307Z,0.00
2018-03-27T02:55:03.271Z,0.00
2018-03-27T02:56:03.134Z,0.00
2018-03-27T02:57:03.080Z,0.00
2018-03-27T02:58:02.956Z,0.00
2018-03-27T02:59:03.030Z,0.00
2018-03-27T03:00:02.795Z,0.00
2018-03-27T03:01:02.796Z,0.00
2018-03-27T03:02:02.627Z,0.00
2018-03-27T03:03:02.599Z,0.00
2018-03-27T03:04:02.487Z,0.00
2018-03-27T03:05:02.413Z,0.00
2018-03-27T03:06:02.315Z,0.00
2018-03-27T03:07:02.319Z,0.00
2018-03-27T03:08:02.140Z,0.00
2018-03-27T03:09:02.130Z,0.00
2018-03-27T03:10:02.005Z,0.00
2018-03-27T03:11:01.977Z,0.00
2018-03-27T03:12:01.817Z,0.00
2018-03-27T03:13:01.844Z,0.00
2018-03-27T03:14:01.658Z,0.00
2018-03-27T03:15:01.695Z,0.00
2018-03-27T03:16:01.496Z,0.00
2018-03-27T03:17:01.468Z,0.00
2018-03-27T03:18:01.312Z,0.00
2018-03-27T03:19:01.278Z,0.00
2018-03-27T03:20:01.167Z,0.00
2018-03-27T03:21:01.122Z,0.00
2018-03-27T03:22:00.983Z,0.00
2018-03-27T03:23:00.994Z,0.00
2018-03-27T03:24:00.815Z,0.00
2018-03-27T03:25:00.806Z,0.00
2018-03-27T03:26:00.671Z,0.00
2018-03-27T03:27:00.609Z,0.00
2018-03-27T03:28:00.491Z,0.00
2018-03-27T03:29:00.523Z,0.00
2018-03-27T03:30:00.419Z,0.00
2018-03-27T03:31:00.360Z,0.00
2018-03-27T03:32:00.175Z,0.00
2018-03-27T03:33:00.149Z,0.00
2018-03-27T03:34:00.001Z,0.00
2018-03-27T03:34:59.951Z,0.00
2018-03-27T03:35:59.846Z,0.00
2018-03-27T03:36:59.886Z,0.00
2018-03-27T03:37:59.662Z,0.00
2018-03-27T03:38:59.664Z,0.00
2018-03-27T03:39:59.497Z,0.00
2018-03-27T03:40:59.488Z,0.00
2018-03-27T03:41:59.352Z,0.00
2018-03-27T03:42:59.385Z,0.00
2018-03-27T03:43:59.169Z,0.00
2018-03-27T03:44:59.187Z,0.00
2018-03-27T03:45:59.028Z,0.00
2018-03-27T03:46:59.027Z,0.00
2018-03-27T03:47:58.843Z,0.00
2018-03-27T03:48:58.806Z,0.00
2018-03-27T03:49:58.778Z,0.00
2018-03-27T03:50:58.723Z,0.00
2018-03-27T03:51:58.545Z,0.00
2018-03-27T03:52:58.643Z,0.00
2018-03-27T03:53:58.344Z,0.00
2018-03-27T03:54:58.343Z,0.00
2018-03-27T03:55:58.176Z,0.00
2018-03-27T03:56:58.143Z,0.00
2018-03-27T03:57:58.037Z,0.00
2018-03-27T03:58:58.054Z,0.00
2018-03-27T03:59:57.856Z,0.00
2018-03-27T04:00:57.864Z,0.00
2018-03-27T04:01:57.695Z,0.00
2018-03-27T04:02:57.711Z,0.00
2018-03-27T04:03:57.517Z,0.00
2018-03-27T04:04:57.483Z,0.00
2018-03-27T04:05:57.345Z,0.00
2018-03-27T04:06:57.390Z,0.00
2018-03-27T04:07:57.201Z,0.00
2018-03-27T04:08:57.202Z,0.00
2018-03-27T04:09:57.128Z,0.00
2018-03-27T04:10:57.002Z,0.00
2018-03-27T04:11:56.850Z,0.00
2018-03-27T04:12:56.854Z,0.00
2018-03-27T04:13:56.694Z,0.00
2018-03-27T04:14:56.723Z,0.00
2018-03-27T04:15:56.528Z,0.00
2018-03-27T04:16:56.534Z,0.00
2018-03-27T04:17:56.357Z,0.00
2018-03-27T04:18:56.374Z,0.00
2018-03-27T04:19:56.300Z,0.00
2018-03-27T04:20:56.152Z,0.00
2018-03-27T04:21:56.043Z,0.00
2018-03-27T04:22:56.112Z,0.00
2018-03-27T04:23:55.865Z,0.00
2018-03-27T04:24:55.874Z,0.00
2018-03-27T04:25:55.700Z,0.00
2018-03-27T04:26:55.676Z,0.00
2018-03-27T04:27:55.557Z,0.00
2018-03-27T04:28:55.483Z,0.00
2018-03-27T04:29:55.365Z,0.00
2018-03-27T04:30:55.393Z,0.00
2018-03-27T04:31:55.195Z,0.00
2018-03-27T04:32:55.234Z,0.00
2018-03-27T04:33:55.037Z,0.00
2018-03-27T04:34:55.027Z,0.00
2018-03-27T04:35:54.865Z,0.00
2018-03-27T04:36:54.819Z,0.00
2018-03-27T04:37:54.728Z,0.00
2018-03-27T04:38:54.736Z,0.00
2018-03-27T04:39:54.590Z,0.00
2018-03-27T04:40:54.547Z,0.00
2018-03-27T04:41:54.371Z,0.00
2018-03-27T04:42:54.443Z,0.00
2018-03-27T04:43:54.215Z,0.00
2018-03-27T04:44:54.161Z,0.00
2018-03-27T04:45:54.033Z,0.00
2018-03-27T04:46:56.348Z,0.00
2018-03-27T04:48:18.271Z,0.00
2018-03-27T04:49:15.851Z,0.00
2018-03-27T04:49:53.787Z,0.00
2018-03-27T04:50:53.620Z,0.00
2018-03-27T04:51:53.591Z,0.00
2018-03-27T04:52:53.454Z,4.00
2018-03-27T04:53:53.429Z,4.00
2018-03-27T04:54:53.288Z,0.00
2018-03-27T04:55:53.332Z,4.00
2018-03-27T04:56:53.127Z,4.00
2018-03-27T04:57:53.123Z,4.00
2018-03-27T04:58:53.016Z,4.00
2018-03-27T04:59:53.005Z,8.00
2018-03-27T05:00:52.798Z,8.00
2018-03-27T05:01:52.839Z,8.00
2018-03-27T05:02:52.725Z,12.00
2018-03-27T05:03:52.723Z,12.00
2018-03-27T05:04:52.589Z,12.00
2018-03-27T05:05:52.514Z,16.00
2018-03-27T05:06:52.304Z,20.00
2018-03-27T05:07:52.343Z,20.00
2018-03-27T05:08:52.128Z,24.00
2018-03-27T05:09:52.109Z,28.00
2018-03-27T05:10:51.953Z,36.00
2018-03-27T05:11:51.992Z,36.00
2018-03-27T05:12:51.845Z,44.00
2018-03-27T05:13:51.792Z,48.00
2018-03-27T05:14:51.640Z,56.00
2018-03-27T05:15:51.609Z,64.00
2018-03-27T05:16:51.464Z,72.00
2018-03-27T05:17:51.509Z,80.00
2018-03-27T05:18:51.301Z,88.00
2018-03-27T05:19:51.330Z,100.00
2018-03-27T05:20:51.150Z,108.00
2018-03-27T05:21:51.133Z,120.00
2018-03-27T05:22:50.961Z,132.00
2018-03-27T05:23:50.937Z,140.00
2018-03-27T05:24:50.797Z,156.00
2018-03-27T05:25:50.774Z,168.00
2018-03-27T05:26:50.646Z,180.00
2018-03-27T05:27:50.858Z,196.00
2018-03-27T05:28:50.525Z,208.00
2018-03-27T05:29:50.999Z,228.00
2018-03-27T05:30:50.339Z,240.00
2018-03-27T05:33:32.221Z,288.00
2018-03-27T05:34:32.170Z,304.00
2018-03-27T05:35:32.029Z,324.00
2018-03-27T05:36:32.100Z,344.00
2018-03-27T05:37:31.866Z,364.00
2018-03-27T05:38:31.889Z,384.00
2018-03-27T05:39:31.705Z,408.00
2018-03-27T05:40:31.713Z,432.00
2018-03-27T05:41:31.555Z,448.00
2018-03-27T05:42:31.510Z,472.00
2018-03-27T05:43:31.366Z,496.00
2018-03-27T05:44:31.320Z,520.00
2018-03-27T05:45:31.202Z,544.00
2018-03-27T05:46:31.251Z,572.00
2018-03-27T05:47:31.033Z,596.00
2018-03-27T05:48:31.034Z,616.00
2018-03-27T05:49:30.875Z,640.00
2018-03-27T05:50:30.845Z,660.00
2018-03-27T05:51:30.717Z,680.00
2018-03-27T05:52:30.652Z,708.00
2018-03-27T05:53:30.570Z,740.00
2018-03-27T05:54:30.561Z,776.00
2018-03-27T05:55:30.367Z,812.00
2018-03-27T05:57:55.282Z,888.00
2018-03-27T05:58:55.120Z,920.00
2018-03-27T05:59:55.064Z,952.00
2018-03-27T06:00:54.947Z,992.00
2018-03-27T06:01:55.016Z,1024.00
2018-03-27T06:02:54.790Z,1056.00
2018-03-27T06:03:54.783Z,1088.00
2018-03-27T06:04:55.290Z,1120.00
2018-03-27T06:05:54.812Z,1156.00
2018-03-27T06:06:54.494Z,1188.00
2018-03-27T06:07:55.062Z,1224.00
2018-03-27T06:08:54.302Z,1260.00
2018-03-27T06:09:54.316Z,1296.00
2018-03-27T06:10:54.114Z,1324.00
2018-03-27T06:11:54.121Z,1356.00
2018-03-27T06:12:53.976Z,1392.00
2018-03-27T06:13:53.950Z,1428.00
2018-03-27T06:14:53.780Z,1460.00
2018-03-27T06:15:53.735Z,1496.00
2018-03-27T06:16:53.638Z,1532.00
2018-03-27T06:17:53.688Z,1572.00
2018-03-27T06:18:53.450Z,1612.00
2018-03-27T06:19:53.455Z,1648.00
2018-03-27T06:20:53.302Z,1680.00
2018-03-27T06:21:53.268Z,1716.00
2018-03-27T06:22:53.135Z,1748.00
2018-03-27T06:23:53.112Z,1776.00
2018-03-27T06:24:52.971Z,1804.00
2018-03-27T06:25:52.983Z,1836.00
2018-03-27T06:26:52.796Z,1856.00
2018-03-27T06:27:52.855Z,1900.00
2018-03-27T06:28:52.619Z,1948.00
2018-03-27T06:29:52.607Z,1992.00
2018-03-27T06:30:52.459Z,2032.00
2018-03-27T06:31:52.409Z,2088.00
2018-03-27T06:32:52.307Z,2092.00
2018-03-27T06:33:52.338Z,2116.00
2018-03-27T06:34:52.122Z,2164.00
2018-03-27T06:35:52.127Z,2180.00
2018-03-27T06:36:51.959Z,2228.00
2018-03-27T06:37:51.951Z,2324.00
2018-03-27T06:38:51.836Z,2376.00
2018-03-27T06:39:51.744Z,2428.00
2018-03-27T06:40:51.641Z,2472.00
2018-03-27T06:41:51.654Z,2516.00
2018-03-27T06:42:51.456Z,2584.00
2018-03-27T06:43:51.474Z,2660.00
2018-03-27T06:44:51.311Z,2748.00
2018-03-27T06:45:51.271Z,2852.00
2018-03-27T06:46:51.123Z,2964.00
2018-03-27T06:47:51.094Z,3096.00
2018-03-27T06:48:50.982Z,3224.00
2018-03-27T06:49:50.987Z,3400.00
2018-03-27T06:50:50.793Z,3564.00
2018-03-27T06:51:50.795Z,3816.00
2018-03-27T06:52:50.658Z,4200.00
2018-03-27T06:53:50.643Z,4628.00
2018-03-27T06:54:50.585Z,4792.00
2018-03-27T06:55:50.415Z,4972.00
2018-03-27T06:56:50.307Z,5012.00
2018-03-27T06:57:50.364Z,5096.00
2018-03-27T06:58:50.133Z,5152.00
2018-03-27T06:59:50.182Z,5324.00
2018-03-27T07:00:49.967Z,5420.00
2018-03-27T07:01:49.961Z,5632.00
2018-03-27T07:02:49.863Z,5708.00
2018-03-27T07:03:49.882Z,5732.00
2018-03-27T07:04:49.668Z,5816.00
2018-03-27T07:05:49.694Z,5928.00
2018-03-27T07:06:49.498Z,5988.00
2018-03-27T07:07:49.501Z,6012.00
2018-03-27T07:08:49.358Z,6036.00
2018-03-27T07:09:49.355Z,6044.00
2018-03-27T07:10:49.165Z,6092.00
2018-03-27T07:11:49.211Z,6288.00
2018-03-27T07:12:48.994Z,6388.00
2018-03-27T07:13:49.014Z,6392.00
2018-03-27T07:14:48.893Z,6332.00
2018-03-27T07:15:48.870Z,6628.00
2018-03-27T07:16:48.681Z,6772.00
2018-03-27T07:17:48.723Z,6720.00
2018-03-27T07:18:48.548Z,6908.00
2018-03-27T07:19:48.574Z,7120.00
2018-03-27T07:20:48.376Z,7320.00
2018-03-27T07:21:48.352Z,7352.00
2018-03-27T07:22:48.210Z,7504.00
2018-03-27T07:23:48.143Z,7728.00
2018-03-27T07:24:48.043Z,7732.00
2018-03-27T07:25:48.116Z,7760.00
2018-03-27T07:26:47.866Z,7904.00
2018-03-27T07:27:47.875Z,7776.00
2018-03-27T07:28:47.720Z,7804.00
2018-03-27T07:29:47.690Z,7644.00
2018-03-27T07:30:47.564Z,7808.00
2018-03-27T07:31:47.595Z,7584.00
2018-03-27T07:32:47.383Z,7296.00
2018-03-27T07:33:47.392Z,7704.00
2018-03-27T07:34:47.229Z,7712.00
2018-03-27T07:35:47.229Z,8048.00
2018-03-27T07:36:47.067Z,8116.00
2018-03-27T07:37:47.012Z,8116.00
2018-03-27T07:38:46.900Z,8112.00
2018-03-27T07:39:46.929Z,8132.00
2018-03-27T07:40:46.789Z,8304.00
2018-03-27T07:41:46.735Z,8248.00
2018-03-27T07:42:46.608Z,8320.00
2018-03-27T07:43:46.530Z,8336.00
2018-03-27T07:44:46.437Z,8280.00
2018-03-27T07:45:46.459Z,8376.00
2018-03-27T07:46:46.273Z,8552.00
2018-03-27T07:47:46.294Z,8580.00
2018-03-27T07:48:46.106Z,8572.00
2018-03-27T07:49:46.063Z,8676.00
2018-03-27T07:50:45.947Z,8804.00
2018-03-27T07:51:46.009Z,8968.00
2018-03-27T07:52:45.798Z,8980.00
2018-03-27T07:53:45.788Z,9080.00
2018-03-27T07:54:45.625Z,9200.00
2018-03-27T07:55:45.590Z,9248.00
2018-03-27T07:56:45.485Z,9288.00
2018-03-27T07:57:45.508Z,9324.00
2018-03-27T07:58:45.313Z,9296.00
2018-03-27T07:59:45.312Z,9248.00
2018-03-27T08:00:45.175Z,9256.00
2018-03-27T08:01:45.149Z,9400.00
2018-03-27T08:02:45.014Z,9412.00
2018-03-27T08:03:45.038Z,9552.00
2018-03-27T08:04:44.830Z,9644.00
2018-03-27T08:05:44.844Z,9768.00
2018-03-27T08:06:44.680Z,9960.00
2018-03-27T08:07:44.677Z,10164.00
2018-03-27T08:08:44.527Z,10596.00
2018-03-27T08:09:44.575Z,10724.00
2018-03-27T08:10:44.374Z,11024.00
2018-03-27T08:11:44.382Z,10444.00
2018-03-27T08:12:44.229Z,10236.00
2018-03-27T08:13:44.176Z,8176.00
2018-03-27T08:14:44.046Z,7056.00
2018-03-27T08:15:44.093Z,7208.00
2018-03-27T08:16:43.896Z,7332.00
2018-03-27T08:17:43.928Z,7652.00
2018-03-27T08:18:43.735Z,6848.00
2018-03-27T08:19:43.697Z,6432.00
2018-03-27T08:20:43.707Z,6288.00
2018-03-27T08:21:43.606Z,6356.00
2018-03-27T08:22:43.446Z,6508.00
2018-03-27T08:23:43.506Z,7156.00
2018-03-27T08:24:43.269Z,6952.00
2018-03-27T08:25:43.230Z,7092.00
2018-03-27T08:26:43.097Z,6780.00
2018-03-27T08:27:43.185Z,7212.00
2018-03-27T08:28:42.993Z,7016.00
2018-03-27T08:29:43.036Z,7332.00
2018-03-27T08:30:42.799Z,7300.00
2018-03-27T08:31:42.760Z,8080.00
2018-03-27T08:32:42.619Z,8160.00
2018-03-27T08:33:42.712Z,8424.00
2018-03-27T08:34:42.467Z,7908.00
2018-03-27T08:35:42.488Z,8416.00
2018-03-27T08:36:42.303Z,7992.00
2018-03-27T08:37:42.278Z,7964.00
2018-03-27T08:38:42.204Z,8040.00
2018-03-27T08:39:42.197Z,8672.00
2018-03-27T08:40:42.054Z,11592.00
2018-03-27T08:41:42.001Z,9984.00
2018-03-27T08:42:41.828Z,11228.00
2018-03-27T08:43:41.856Z,11032.00
2018-03-27T08:44:41.679Z,10760.00
2018-03-27T08:45:41.651Z,13948.00
2018-03-27T08:46:41.520Z,12500.00
2018-03-27T08:47:41.524Z,12444.00
2018-03-27T08:48:41.374Z,9684.00
2018-03-27T08:49:41.343Z,12340.00
2018-03-27T08:50:41.229Z,9908.00
2018-03-27T08:51:41.156Z,8796.00
2018-03-27T08:52:41.053Z,11496.00
2018-03-27T08:53:41.083Z,8692.00
2018-03-27T08:54:40.880Z,8520.00
2018-03-27T08:55:40.875Z,8732.00
2018-03-27T08:56:40.762Z,13520.00
2018-03-27T08:57:40.675Z,9488.00
2018-03-27T08:58:40.563Z,9912.00
2018-03-27T08:59:40.697Z,9812.00
2018-03-27T09:00:40.432Z,11416.00
2018-03-27T09:01:40.442Z,14784.00
2018-03-27T09:02:40.236Z,10904.00
2018-03-27T09:03:40.232Z,9352.00
2018-03-27T09:04:40.114Z,13560.00
2018-03-27T09:05:40.113Z,15032.00
2018-03-27T09:06:39.958Z,14736.00
2018-03-27T09:09:21.734Z,14672.00
2018-03-27T09:10:21.714Z,16576.00
2018-03-27T09:11:21.590Z,17664.00
2018-03-27T09:12:21.658Z,14332.00
2018-03-27T09:13:21.440Z,16032.00
2018-03-27T09:14:21.428Z,13172.00
2018-03-27T09:15:21.286Z,12300.00
2018-03-27T09:16:21.238Z,10792.00
2018-03-27T09:17:21.122Z,9276.00
2018-03-27T09:18:21.152Z,8640.00
2018-03-27T09:19:20.955Z,7852.00
2018-03-27T09:20:21.051Z,8400.00
2018-03-27T09:21:20.803Z,8440.00
2018-03-27T09:22:20.760Z,8732.00
2018-03-27T09:23:20.659Z,8808.00
2018-03-27T09:24:20.674Z,9708.00
2018-03-27T09:25:20.510Z,10636.00
2018-03-27T09:26:20.490Z,10732.00
2018-03-27T09:27:20.344Z,11020.00
2018-03-27T09:28:20.305Z,10812.00
2018-03-27T09:29:20.173Z,11420.00
2018-03-27T09:30:20.239Z,11476.00
2018-03-27T09:31:20.021Z,11168.00
2018-03-27T09:32:20.019Z,9620.00
2018-03-27T09:33:19.926Z,9300.00
2018-03-27T09:34:19.823Z,8504.00
2018-03-27T09:35:19.726Z,7752.00
2018-03-27T09:36:19.736Z,7612.00
2018-03-27T09:37:19.550Z,7528.00
2018-03-27T09:38:19.584Z,6988.00
2018-03-27T09:39:19.384Z,6616.00
2018-03-27T09:40:19.412Z,6348.00
2018-03-27T09:41:19.289Z,6240.00
2018-03-27T09:42:19.272Z,6648.00
2018-03-27T09:43:19.073Z,6624.00
2018-03-27T09:44:19.210Z,6044.00
2018-03-27T09:45:18.936Z,5496.00
2018-03-27T09:46:20.050Z,5528.00
2018-03-27T09:47:18.808Z,5704.00
2018-03-27T09:48:19.776Z,6416.00
2018-03-27T09:49:18.600Z,6956.00
2018-03-27T09:50:18.598Z,6876.00
2018-03-27T09:51:18.459Z,7388.00
2018-03-27T09:52:18.460Z,7732.00
2018-03-27T09:53:18.365Z,7568.00
2018-03-27T09:54:18.345Z,6868.00
2018-03-27T09:55:18.154Z,6524.00
2018-03-27T09:56:18.170Z,6216.00
2018-03-27T09:57:17.998Z,5928.00
2018-03-27T09:58:17.972Z,5800.00
2018-03-27T09:59:17.928Z,5488.00
2018-03-27T10:00:17.855Z,5508.00
2018-03-27T10:01:17.652Z,5272.00
2018-03-27T10:02:17.695Z,4964.00
2018-03-27T10:03:17.492Z,4836.00
2018-03-27T10:04:17.473Z,5236.00
2018-03-27T10:05:17.326Z,5976.00
2018-03-27T10:06:17.377Z,5996.00
2018-03-27T10:07:17.184Z,6028.00
2018-03-27T10:08:17.187Z,6108.00
2018-03-27T10:09:17.024Z,5856.00
2018-03-27T10:10:16.995Z,5576.00
2018-03-27T10:11:16.841Z,6048.00
2018-03-27T10:12:16.830Z,7596.00
2018-03-27T10:13:16.686Z,8496.00
2018-03-27T10:14:16.732Z,8220.00
2018-03-27T10:15:16.521Z,7552.00
2018-03-27T10:16:16.572Z,7080.00
2018-03-27T10:17:16.394Z,7348.00
2018-03-27T10:18:16.367Z,8132.00
2018-03-27T10:19:16.233Z,8268.00
2018-03-27T10:20:16.245Z,7936.00
2018-03-27T10:21:16.047Z,8568.00
2018-03-27T10:22:16.052Z,8920.00
2018-03-27T10:23:15.897Z,9072.00
2018-03-27T10:24:15.869Z,8568.00
2018-03-27T10:25:15.723Z,8776.00
2018-03-27T10:26:15.768Z,9680.00
2018-03-27T10:27:15.589Z,10552.00
2018-03-27T10:28:15.612Z,10804.00
2018-03-27T10:29:15.524Z,11756.00
2018-03-27T10:30:15.388Z,13208.00
2018-03-27T10:31:15.240Z,12520.00
2018-03-27T10:32:15.337Z,14372.00
2018-03-27T10:33:15.080Z,14940.00
2018-03-27T10:34:15.125Z,18880.00
2018-03-27T10:35:14.925Z,20384.00
2018-03-27T10:36:14.901Z,21184.00
2018-03-27T10:37:14.771Z,22944.00
2018-03-27T10:38:14.816Z,23168.00
2018-03-27T10:39:14.632Z,22496.00
2018-03-27T10:40:14.629Z,24544.00
2018-03-27T10:41:14.459Z,28480.00
2018-03-27T10:42:14.439Z,31648.00
2018-03-27T10:43:14.289Z,31680.00
2018-03-27T10:44:14.289Z,31520.00
2018-03-27T10:45:14.135Z,25984.00
2018-03-27T10:46:14.152Z,23936.00
2018-03-27T10:47:13.980Z,20384.00
2018-03-27T10:48:13.979Z,18880.00
2018-03-27T10:49:13.953Z,21632.00
2018-03-27T10:50:13.791Z,20608.00
2018-03-27T10:51:13.657Z,14040.00
2018-03-27T10:52:13.700Z,12624.00
2018-03-27T10:53:13.506Z,14904.00
2018-03-27T10:54:13.538Z,19072.00
2018-03-27T10:55:13.355Z,25248.00
2018-03-27T10:56:13.397Z,27680.00
2018-03-27T10:57:13.214Z,26496.00
2018-03-27T10:59:55.287Z,19936.00
2018-03-27T11:00:55.315Z,19584.00
2018-03-27T11:01:55.117Z,21984.00
2018-03-27T11:02:55.156Z,19136.00
2018-03-27T11:03:54.983Z,36160.00
2018-03-27T11:04:54.972Z,37952.00
2018-03-27T11:05:54.792Z,42464.00
2018-03-27T11:06:54.831Z,40128.00
2018-03-27T11:07:54.642Z,32192.00
2018-03-27T11:08:54.655Z,29600.00
2018-03-27T11:09:54.523Z,25888.00
2018-03-27T11:10:54.457Z,15436.00
2018-03-27T11:11:54.336Z,12452.00
2018-03-27T11:12:54.376Z,15300.00
2018-03-27T11:13:54.191Z,19264.00
2018-03-27T11:14:54.201Z,21024.00
2018-03-27T11:15:54.035Z,11604.00
2018-03-27T11:16:54.018Z,9092.00
2018-03-27T11:17:53.862Z,8136.00
2018-03-27T11:18:53.897Z,8280.00
2018-03-27T11:19:53.732Z,7620.00
2018-03-27T11:20:53.728Z,7408.00
2018-03-27T11:21:53.670Z,7704.00
2018-03-27T11:22:53.499Z,7160.00
2018-03-27T11:23:53.395Z,6716.00
2018-03-27T11:24:53.424Z,7088.00
2018-03-27T11:25:53.241Z,6512.00
2018-03-27T11:26:53.254Z,6616.00
2018-03-27T11:27:53.077Z,6540.00
2018-03-27T11:28:53.045Z,7024.00
2018-03-27T11:29:52.921Z,6860.00
2018-03-27T11:30:52.978Z,6372.00
2018-03-27T11:31:52.800Z,5868.00
2018-03-27T11:32:52.767Z,5196.00
2018-03-27T11:33:52.597Z,4552.00
2018-03-27T11:34:52.593Z,4704.00
2018-03-27T11:35:52.461Z,5888.00
2018-03-27T11:36:52.517Z,12592.00
2018-03-27T11:37:52.303Z,8868.00
2018-03-27T11:38:52.278Z,16960.00
2018-03-27T11:39:52.144Z,12992.00
2018-03-27T11:40:52.091Z,22720.00
2018-03-27T11:41:51.988Z,11780.00
2018-03-27T11:42:52.039Z,13960.00
2018-03-27T11:43:51.827Z,40640.00
2018-03-27T11:44:51.811Z,58176.00
2018-03-27T11:45:51.652Z,61184.00
2018-03-27T11:46:51.625Z,61600.00
2018-03-27T11:47:51.518Z,67200.00
2018-03-27T11:48:51.537Z,73408.00
2018-03-27T11:49:51.337Z,70080.00
2018-03-27T11:50:51.338Z,69056.00
2018-03-27T11:51:51.252Z,65184.00
2018-03-27T11:52:51.142Z,35264.00
2018-03-27T11:53:51.022Z,35520.00
2018-03-27T11:54:51.067Z,41408.00
2018-03-27T11:55:50.974Z,49984.00
2018-03-27T11:56:50.860Z,45600.00
2018-03-27T11:57:50.809Z,35136.00
2018-03-27T11:58:50.668Z,31968.00
2018-03-27T11:59:50.560Z,33920.00
2018-03-27T12:00:50.613Z,40992.00
2018-03-27T12:01:50.422Z,34400.00
2018-03-27T12:02:50.417Z,13656.00
2018-03-27T12:03:50.248Z,10948.00
2018-03-27T12:04:50.315Z,10208.00
2018-03-27T12:05:50.095Z,9292.00
2018-03-27T12:06:50.143Z,7520.00
2018-03-27T12:07:49.958Z,5868.00
2018-03-27T12:08:49.934Z,5316.00
2018-03-27T12:09:49.789Z,4868.00
2018-03-27T12:10:49.835Z,4392.00
2018-03-27T12:11:49.626Z,4876.00
2018-03-27T12:12:49.668Z,6112.00
2018-03-27T12:13:49.591Z,6212.00
2018-03-27T12:14:49.451Z,6572.00
2018-03-27T12:15:49.333Z,6464.00
2018-03-27T12:16:49.410Z,5784.00
2018-03-27T12:17:49.174Z,4728.00
2018-03-27T12:18:49.160Z,4328.00
2018-03-27T12:19:49.004Z,4208.00
2018-03-27T12:20:48.967Z,4724.00
2018-03-27T12:21:48.870Z,5580.00
2018-03-27T12:22:48.947Z,5864.00
2018-03-27T12:23:48.718Z,5756.00
2018-03-27T12:24:48.700Z,5576.00
2018-03-27T12:25:48.522Z,5456.00
2018-03-27T12:26:48.501Z,5672.00
2018-03-27T12:27:48.391Z,5908.00
2018-03-27T12:28:48.449Z,5892.00
2018-03-27T12:29:48.221Z,5928.00
2018-03-27T12:32:30.304Z,6684.00
2018-03-27T12:33:30.321Z,7596.00
2018-03-27T12:34:30.152Z,8792.00
2018-03-27T12:35:30.132Z,8924.00
2018-03-27T12:36:29.975Z,9116.00
2018-03-27T12:37:29.945Z,9136.00
2018-03-27T12:38:29.825Z,8896.00
2018-03-27T12:39:29.889Z,7992.00
2018-03-27T12:40:29.660Z,7688.00